Time;durP1;ratioP1;P1;durP2;ratioP2;P2;SDS_P1;SDS_P2;PMS_P1;PMS_P2;Temp;Humidity;BMP_temperature;BMP_pressure;BME280_temperature;BME280_humidity;BME280_pressure;Samples;Min_cycle;Max_cycle;Signal;HPM_P1;HPM_P2
2021/06/12 00:00:22;;;;;;;15.50;13.90;;;20.50;80.70;;;;;;2042018;29;20031;-71
2021/06/12 00:01:22;;;;;;;15.17;13.67;;;20.50;80.60;;;;;;2045730;29;20419;-70
2021/06/12 00:02:24;;;;;;;15.20;13.70;;;20.50;80.60;;;;;;2038401;29;20284;-70
2021/06/12 00:03:25;;;;;;;14.82;13.32;;;20.50;80.80;;;;;;2037367;29;20024;-70
2021/06/12 00:04:26;;;;;;;14.27;12.98;;;20.50;80.90;;;;;;2036583;29;20118;-71
2021/06/12 00:05:26;;;;;;;14.48;12.98;;;20.50;80.80;;;;;;2037213;29;20035;-70
2021/06/12 00:06:27;;;;;;;15.82;14.15;;;20.50;80.80;;;;;;2041652;29;20471;-71
2021/06/12 00:07:28;;;;;;;14.68;13.20;;;20.60;81.10;;;;;;2041008;29;20077;-71
2021/06/12 00:08:28;;;;;;;14.32;12.93;;;20.50;81.00;;;;;;2040915;29;20154;-71
2021/06/12 00:09:29;;;;;;;15.00;13.55;;;20.50;81.10;;;;;;2040677;29;20066;-70
2021/06/12 00:10:35;;;;;;;14.48;13.07;;;20.60;81.00;;;;;;2040977;29;20036;-70
2021/06/12 00:11:36;;;;;;;14.27;12.88;;;20.60;81.80;;;;;;2040858;29;20056;-70
2021/06/12 00:12:37;;;;;;;15.95;14.05;;;20.60;81.10;;;;;;2040768;29;20047;-70
2021/06/12 00:13:37;;;;;;;14.15;12.75;;;20.60;81.20;;;;;;2040808;29;20020;-71
2021/06/12 00:14:38;;;;;;;14.90;13.40;;;20.60;81.20;;;;;;2039999;29;20538;-71
2021/06/12 00:15:38;;;;;;;14.50;13.10;;;20.60;81.20;;;;;;2040468;29;20112;-71
2021/06/12 00:16:39;;;;;;;14.15;12.70;;;20.50;81.10;;;;;;2040539;29;20060;-70
2021/06/12 00:17:40;;;;;;;14.95;13.45;;;20.60;81.20;;;;;;2040663;29;20066;-70
2021/06/12 00:18:40;;;;;;;14.43;12.93;;;20.50;81.00;;;;;;2040049;29;20044;-70
2021/06/12 00:19:41;;;;;;;14.02;12.70;;;20.60;81.10;;;;;;2032295;29;20070;-69
2021/06/12 00:20:42;;;;;;;13.80;12.48;;;20.50;81.00;;;;;;2032259;29;20028;-69
2021/06/12 00:21:43;;;;;;;13.90;12.60;;;20.60;81.10;;;;;;2040634;29;20118;-70
2021/06/12 00:22:43;;;;;;;14.27;12.88;;;20.60;81.10;;;;;;2040684;29;20024;-69
2021/06/12 00:23:44;;;;;;;13.98;12.63;;;20.60;81.10;;;;;;2040839;29;20036;-69
2021/06/12 00:24:44;;;;;;;13.88;12.57;;;20.60;81.20;;;;;;2040090;29;20038;-69
2021/06/12 00:25:45;;;;;;;14.10;12.70;;;20.60;81.20;;;;;;2040494;29;20036;-69
2021/06/12 00:26:46;;;;;;;14.63;13.13;;;20.60;81.30;;;;;;2040824;29;20062;-70
2021/06/12 00:27:46;;;;;;;14.60;13.10;;;20.60;81.30;;;;;;2040767;29;20020;-69
2021/06/12 00:28:47;;;;;;;14.60;13.20;;;20.60;81.30;;;;;;2040669;29;20755;-69
2021/06/12 00:29:48;;;;;;;15.70;14.10;;;20.60;82.10;;;;;;2040670;29;20020;-69
2021/06/12 00:30:49;;;;;;;15.13;13.63;;;20.60;81.30;;;;;;2032053;29;20115;-69
2021/06/12 00:31:50;;;;;;;16.27;14.57;;;20.60;81.30;;;;;;2032051;29;20369;-69
2021/06/12 00:32:52;;;;;;;14.75;13.25;;;20.60;81.10;;;;;;2031781;29;20028;-69
2021/06/12 00:33:54;;;;;;;14.73;13.25;;;20.60;81.20;;;;;;2032039;29;20028;-70
2021/06/12 00:34:54;;;;;;;15.45;13.95;;;20.60;81.20;;;;;;2031634;29;20111;-70
2021/06/12 00:35:55;;;;;;;14.57;13.07;;;20.50;82.10;;;;;;2040252;29;20020;-69
2021/06/12 00:36:55;;;;;;;14.18;12.85;;;20.50;81.50;;;;;;2040451;29;20031;-70
2021/06/12 00:37:56;;;;;;;14.68;13.27;;;20.50;81.90;;;;;;2040441;29;20023;-70
2021/06/12 00:38:57;;;;;;;14.77;13.30;;;20.50;81.90;;;;;;2040535;29;20031;-70
2021/06/12 00:39:57;;;;;;;14.77;13.27;;;20.50;82.10;;;;;;2040436;29;20039;-70
2021/06/12 00:40:58;;;;;;;13.52;12.25;;;20.40;82.10;;;;;;2040511;29;20035;-70
2021/06/12 00:41:59;;;;;;;14.15;12.75;;;20.40;82.20;;;;;;2040051;29;20057;-70
2021/06/12 00:42:59;;;;;;;14.43;13.02;;;20.40;82.20;;;;;;2039708;29;20035;-70
2021/06/12 00:44:00;;;;;;;14.05;12.65;;;20.40;82.30;;;;;;2039852;29;20027;-70
2021/06/12 00:45:00;;;;;;;14.23;12.82;;;20.40;82.40;;;;;;2039086;29;20030;-71
2021/06/12 00:46:02;;;;;;;14.73;13.18;;;20.40;82.60;;;;;;2039772;29;20032;-70
2021/06/12 00:47:03;;;;;;;14.38;12.98;;;20.40;82.90;;;;;;2039884;29;20039;-70
2021/06/12 00:48:04;;;;;;;14.45;13.05;;;20.30;82.90;;;;;;2040398;29;20055;-71
2021/06/12 00:49:04;;;;;;;14.07;12.60;;;20.40;83.00;;;;;;2040434;29;20496;-70
2021/06/12 00:50:07;;;;;;;14.77;13.38;;;20.30;83.00;;;;;;2040370;29;20038;-70
2021/06/12 00:51:08;;;;;;;14.35;12.95;;;20.30;83.10;;;;;;2039887;29;20134;-70
2021/06/12 00:52:08;;;;;;;13.45;12.20;;;20.40;83.20;;;;;;2031783;29;20047;-70
2021/06/12 00:53:09;;;;;;;14.27;12.77;;;20.30;83.20;;;;;;2033771;29;20024;-69
2021/06/12 00:54:10;;;;;;;14.00;12.63;;;20.40;83.20;;;;;;2040209;29;20107;-70
2021/06/12 00:55:14;;;;;;;13.80;12.50;;;20.30;83.10;;;;;;2031159;29;20043;-70
2021/06/12 00:56:17;;;;;;;13.90;12.57;;;20.30;83.20;;;;;;2032442;29;20122;-69
2021/06/12 00:57:18;;;;;;;13.75;12.35;;;20.40;83.20;;;;;;2040705;29;20035;-69
2021/06/12 00:58:20;;;;;;;13.68;12.27;;;20.40;83.10;;;;;;2040282;29;20024;-69
2021/06/12 00:59:21;;;;;;;14.13;12.75;;;20.40;83.10;;;;;;2040435;29;20411;-70
2021/06/12 01:00:22;;;;;;;13.63;12.30;;;20.40;83.10;;;;;;2040272;29;20035;-70
2021/06/12 01:01:23;;;;;;;13.77;12.48;;;20.40;83.00;;;;;;2039713;29;20020;-70
2021/06/12 01:02:24;;;;;;;13.75;12.35;;;20.40;83.00;;;;;;2039617;29;20031;-69
2021/06/12 01:03:27;;;;;;;13.50;12.15;;;20.40;82.90;;;;;;2039924;29;20095;-70
2021/06/12 01:04:27;;;;;;;13.20;11.90;;;20.40;82.80;;;;;;2039053;29;20035;-69
2021/06/12 01:05:28;;;;;;;13.85;12.50;;;20.40;82.80;;;;;;2039321;29;20514;-70
2021/06/12 01:06:28;;;;;;;13.15;11.85;;;20.40;82.70;;;;;;2039597;29;20084;-70
2021/06/12 01:07:29;;;;;;;12.88;11.68;;;20.40;83.20;;;;;;2039799;29;20052;-69
2021/06/12 01:08:30;;;;;;;12.90;11.70;;;20.40;82.60;;;;;;2039697;29;20032;-70
2021/06/12 01:09:30;;;;;;;13.95;11.98;;;20.40;82.60;;;;;;2040337;29;20023;-70
2021/06/12 01:10:31;;;;;;;13.27;11.95;;;20.40;82.50;;;;;;2040184;29;20466;-70
2021/06/12 01:11:40;;;;;;;13.30;12.00;;;20.40;82.60;;;;;;2040173;29;20035;-70
2021/06/12 01:12:51;;;;;;;13.02;11.82;;;20.40;82.50;;;;;;2039551;29;20115;-69
2021/06/12 01:13:58;;;;;;;13.02;11.77;;;20.40;82.40;;;;;;2037365;29;20055;-69
2021/06/12 01:15:10;;;;;;;13.13;11.82;;;20.40;82.40;;;;;;2031201;29;20074;-72
2021/06/12 01:16:26;;;;;;;12.77;11.50;;;20.40;82.60;;;;;;2039865;29;20087;-71
2021/06/12 01:17:35;;;;;;;13.20;11.90;;;20.40;82.30;;;;;;2040243;29;20111;-70
2021/06/12 01:18:38;;;;;;;13.40;12.00;;;20.50;82.10;;;;;;2039358;29;20023;-71
2021/06/12 01:19:53;;;;;;;12.40;11.20;;;20.40;82.00;;;;;;2039615;29;20027;-71
2021/06/12 01:21:06;;;;;;;12.45;11.25;;;20.40;81.90;;;;;;2031812;29;20039;-70
2021/06/12 01:22:16;;;;;;;12.50;11.25;;;20.50;82.00;;;;;;2025566;29;20024;-70
2021/06/12 01:24:22;;;;;;;12.45;11.25;;;20.40;81.80;;;;;;2032983;29;20032;-71
2021/06/12 01:25:37;;;;;;;12.82;11.50;;;20.40;81.90;;;;;;2007264;29;20093;-71
2021/06/12 01:26:59;;;;;;;13.23;11.95;;;20.40;82.00;;;;;;2018862;29;20540;-71
2021/06/12 01:28:24;;;;;;;13.13;11.82;;;20.40;82.10;;;;;;2034475;29;20043;-70
2021/06/12 01:29:58;;;;;;;14.88;12.05;;;20.30;82.50;;;;;;2031597;29;20062;-71
2021/06/12 01:31:00;;;;;;;13.52;11.80;;;20.30;82.80;;;;;;2036027;29;20176;-71
2021/06/12 01:32:02;;;;;;;12.75;11.45;;;20.20;83.00;;;;;;2038484;29;20102;-70
2021/06/12 01:33:10;;;;;;;13.13;11.82;;;20.20;83.30;;;;;;2039259;29;20023;-71
2021/06/12 01:34:19;;;;;;;12.98;11.38;;;20.20;83.50;;;;;;2039858;29;20044;-72
2021/06/12 01:35:35;;;;;;;12.70;11.50;;;20.10;83.60;;;;;;2039168;29;20028;-70
2021/06/12 01:36:36;;;;;;;13.35;11.98;;;20.10;83.80;;;;;;2039825;29;20019;-70
2021/06/12 01:37:39;;;;;;;13.23;11.75;;;20.10;84.00;;;;;;2039710;29;20372;-70
2021/06/12 01:38:45;;;;;;;12.75;11.45;;;20.00;84.10;;;;;;2039898;29;20032;-69
2021/06/12 01:39:48;;;;;;;12.85;11.65;;;20.00;84.50;;;;;;2039867;29;20032;-70
2021/06/12 01:40:49;;;;;;;12.55;11.25;;;20.00;84.70;;;;;;2031115;29;20111;-71
2021/06/12 01:41:52;;;;;;;12.80;11.60;;;19.90;84.80;;;;;;2031491;29;20032;-71
2021/06/12 01:42:55;;;;;;;12.43;11.23;;;19.90;85.10;;;;;;2040010;29;20027;-71
2021/06/12 01:43:58;;;;;;;12.20;10.95;;;19.80;85.20;;;;;;2040030;29;20040;-70
2021/06/12 01:44:59;;;;;;;12.07;10.98;;;19.80;85.40;;;;;;2039330;29;20064;-70
2021/06/12 01:46:01;;;;;;;12.88;11.68;;;19.80;85.50;;;;;;2039896;29;20625;-70
2021/06/12 01:47:03;;;;;;;13.07;11.88;;;19.80;85.70;;;;;;2039924;29;20032;-70
2021/06/12 01:48:04;;;;;;;12.55;11.35;;;19.70;85.70;;;;;;2046888;29;20039;-70
2021/06/12 01:49:07;;;;;;;12.68;11.55;;;19.70;85.80;;;;;;2039952;29;20046;-71
2021/06/12 01:50:10;;;;;;;12.70;11.48;;;19.70;86.00;;;;;;2039775;29;20028;-69
2021/06/12 01:51:11;;;;;;;12.70;11.40;;;19.70;86.20;;;;;;2038999;29;20072;-69
2021/06/12 01:52:13;;;;;;;12.75;11.45;;;19.60;86.10;;;;;;2031345;29;20035;-69
2021/06/12 01:53:20;;;;;;;12.93;11.70;;;19.70;86.30;;;;;;2031674;29;20499;-70
2021/06/12 01:54:23;;;;;;;11.68;10.57;;;19.60;86.30;;;;;;2039188;29;20031;-70
2021/06/12 01:55:27;;;;;;;13.25;11.95;;;19.60;86.50;;;;;;2038155;29;20047;-70
2021/06/12 01:56:29;;;;;;;11.85;10.73;;;19.60;86.60;;;;;;2039003;29;20024;-70
2021/06/12 01:57:30;;;;;;;12.68;11.48;;;19.60;86.70;;;;;;2039853;29;20090;-71
2021/06/12 01:58:32;;;;;;;12.52;11.32;;;19.60;86.80;;;;;;2031361;29;20055;-70
2021/06/12 01:59:34;;;;;;;13.02;11.73;;;19.60;86.80;;;;;;2031889;29;20036;-69
2021/06/12 02:00:36;;;;;;;12.82;11.63;;;19.50;86.80;;;;;;2039911;29;20020;-69
2021/06/12 02:01:39;;;;;;;14.60;13.15;;;19.60;87.00;;;;;;2039187;29;20038;-69
2021/06/12 02:02:42;;;;;;;14.15;12.82;;;19.50;87.00;;;;;;2038783;29;20119;-69
2021/06/12 02:03:46;;;;;;;13.40;12.10;;;19.50;87.00;;;;;;2031314;29;20656;-69
2021/06/12 02:04:50;;;;;;;13.05;11.85;;;19.50;87.10;;;;;;2030849;29;20067;-69
2021/06/12 02:05:52;;;;;;;13.30;11.98;;;19.50;87.20;;;;;;2038615;29;20046;-69
2021/06/12 02:07:00;;;;;;;13.75;12.38;;;19.50;87.30;;;;;;2039231;29;20080;-69
2021/06/12 02:08:01;;;;;;;13.82;12.32;;;19.40;87.20;;;;;;2038870;29;20107;-69
2021/06/12 02:09:04;;;;;;;13.35;12.02;;;19.40;87.00;;;;;;2039223;29;20035;-70
2021/06/12 02:10:05;;;;;;;13.98;12.25;;;19.40;87.00;;;;;;2039223;29;20024;-69
2021/06/12 02:11:07;;;;;;;14.05;12.52;;;19.40;87.20;;;;;;2039148;29;20040;-69
2021/06/12 02:12:08;;;;;;;13.13;11.82;;;19.30;87.20;;;;;;2038848;29;20056;-69
2021/06/12 02:13:10;;;;;;;13.63;12.32;;;19.30;87.30;;;;;;2039415;29;20084;-69
2021/06/12 02:14:13;;;;;;;13.02;11.82;;;19.30;87.50;;;;;;2039764;29;20044;-69
2021/06/12 02:15:15;;;;;;;12.73;11.50;;;19.30;87.40;;;;;;2039933;29;20031;-69
2021/06/12 02:16:16;;;;;;;13.63;11.73;;;19.30;87.50;;;;;;2041523;29;20039;-69
2021/06/12 02:17:19;;;;;;;12.68;11.48;;;19.30;87.60;;;;;;2040896;29;20031;-69
2021/06/12 02:18:20;;;;;;;12.88;11.43;;;19.30;87.70;;;;;;2040773;29;20174;-69
2021/06/12 02:19:22;;;;;;;12.38;11.20;;;19.30;87.80;;;;;;2040941;29;20476;-69
2021/06/12 02:20:24;;;;;;;12.43;11.23;;;19.20;87.90;;;;;;2041546;29;20522;-70
2021/06/12 02:21:25;;;;;;;12.27;11.10;;;19.30;88.10;;;;;;2040777;29;20396;-69
2021/06/12 02:22:28;;;;;;;12.43;11.23;;;19.20;88.00;;;;;;2040844;29;20063;-69
2021/06/12 02:23:30;;;;;;;12.95;11.65;;;19.20;88.10;;;;;;2041410;29;20062;-69
2021/06/12 02:24:30;;;;;;;12.73;11.43;;;19.20;88.10;;;;;;2040874;29;20020;-69
2021/06/12 02:25:32;;;;;;;12.70;11.45;;;19.20;88.40;;;;;;2040989;29;20032;-69
2021/06/12 02:26:38;;;;;;;12.80;11.60;;;19.20;88.50;;;;;;2041023;29;20032;-69
2021/06/12 02:27:43;;;;;;;12.70;11.40;;;19.10;88.50;;;;;;2041542;29;20381;-69
2021/06/12 02:28:44;;;;;;;13.80;11.82;;;19.10;88.60;;;;;;2041379;29;20016;-69
2021/06/12 02:29:45;;;;;;;12.52;11.23;;;19.10;88.60;;;;;;2041427;29;20434;-69
2021/06/12 02:30:58;;;;;;;12.25;11.13;;;19.10;88.60;;;;;;2041431;29;20020;-69
2021/06/12 02:32:10;;;;;;;12.57;11.25;;;19.10;88.80;;;;;;2025425;29;20084;-69
2021/06/12 02:33:14;;;;;;;12.35;11.15;;;19.10;88.60;;;;;;2034415;29;20492;-69
2021/06/12 02:34:15;;;;;;;12.43;11.20;;;19.10;88.60;;;;;;2032721;29;20032;-69
2021/06/12 02:35:15;;;;;;;11.52;10.43;;;19.10;88.60;;;;;;2032110;29;20044;-69
2021/06/12 02:36:16;;;;;;;12.68;11.40;;;19.10;88.50;;;;;;2041277;29;20036;-69
2021/06/12 02:37:17;;;;;;;11.80;10.63;;;19.10;88.50;;;;;;2032863;29;20036;-69
2021/06/12 02:38:17;;;;;;;11.80;10.70;;;19.10;88.50;;;;;;2025054;29;20099;-69
2021/06/12 02:39:18;;;;;;;12.52;11.32;;;19.10;88.50;;;;;;2025015;29;20051;-69
2021/06/12 02:40:19;;;;;;;12.52;11.23;;;19.10;88.60;;;;;;2032788;29;20127;-69
2021/06/12 02:41:22;;;;;;;13.57;10.88;;;19.10;88.60;;;;;;2033017;29;20084;-69
2021/06/12 02:42:22;;;;;;;11.60;10.50;;;19.10;88.60;;;;;;2033319;29;20698;-69
2021/06/12 02:43:23;;;;;;;12.30;11.02;;;19.10;88.60;;;;;;2041238;29;20028;-69
2021/06/12 02:44:24;;;;;;;11.65;10.45;;;19.10;88.60;;;;;;2041362;29;20027;-69
2021/06/12 02:45:25;;;;;;;12.10;10.98;;;19.10;88.50;;;;;;2040801;29;20027;-69
2021/06/12 02:46:30;;;;;;;12.48;11.25;;;19.10;88.40;;;;;;2042181;29;20091;-69
2021/06/12 02:47:34;;;;;;;11.55;10.45;;;19.00;88.40;;;;;;2041905;29;20725;-69
2021/06/12 02:48:37;;;;;;;12.30;11.10;;;19.00;88.70;;;;;;2042091;29;20024;-69
2021/06/12 02:49:41;;;;;;;12.50;11.32;;;19.00;88.70;;;;;;2042507;29;20056;-69
2021/06/12 02:50:44;;;;;;;11.73;10.63;;;19.00;88.80;;;;;;2042452;29;20142;-69
2021/06/12 02:51:51;;;;;;;11.55;10.45;;;19.00;88.80;;;;;;2042085;29;20020;-70
2021/06/12 02:52:54;;;;;;;12.38;11.07;;;19.00;88.60;;;;;;2041651;29;20019;-70
2021/06/12 02:53:57;;;;;;;12.57;11.38;;;19.00;88.50;;;;;;2041391;29;20087;-70
2021/06/12 02:55:02;;;;;;;11.85;10.75;;;19.00;88.50;;;;;;2032816;29;20020;-70
2021/06/12 02:56:04;;;;;;;11.90;10.75;;;19.00;88.50;;;;;;2041178;29;20082;-70
2021/06/12 02:57:07;;;;;;;12.35;11.15;;;19.00;88.60;;;;;;2041261;29;20039;-69
2021/06/12 02:58:09;;;;;;;11.98;10.77;;;19.00;88.60;;;;;;2040843;29;20063;-69
2021/06/12 02:59:16;;;;;;;12.10;11.00;;;19.00;88.80;;;;;;2040858;29;20027;-70
2021/06/12 03:00:21;;;;;;;12.60;11.30;;;19.00;88.90;;;;;;2041951;29;20032;-69
2021/06/12 03:01:23;;;;;;;11.60;10.40;;;19.00;89.10;;;;;;2042064;29;20036;-69
2021/06/12 03:02:24;;;;;;;11.70;10.60;;;19.00;89.20;;;;;;2041373;29;20032;-69
2021/06/12 03:03:26;;;;;;;11.27;10.27;;;19.00;89.20;;;;;;2042257;29;20034;-70
2021/06/12 03:04:29;;;;;;;11.23;10.23;;;19.00;89.20;;;;;;2041335;29;20091;-69
2021/06/12 03:05:34;;;;;;;11.38;10.38;;;19.00;89.20;;;;;;2041286;29;20086;-69
2021/06/12 03:06:38;;;;;;;12.10;10.90;;;18.90;88.90;;;;;;2041218;29;20094;-69
2021/06/12 03:07:39;;;;;;;11.75;10.68;;;18.90;88.90;;;;;;2041206;29;20387;-69
2021/06/12 03:08:44;;;;;;;12.18;11.00;;;18.90;89.00;;;;;;2041134;29;20023;-69
2021/06/12 03:09:45;;;;;;;11.35;10.25;;;18.90;89.00;;;;;;2041240;29;20440;-69
2021/06/12 03:10:48;;;;;;;11.23;10.20;;;18.90;89.00;;;;;;2041147;29;20032;-69
2021/06/12 03:11:54;;;;;;;11.27;10.18;;;18.90;89.10;;;;;;2041167;29;20027;-69
2021/06/12 03:12:56;;;;;;;12.10;10.90;;;18.90;89.20;;;;;;2040514;29;20538;-69
2021/06/12 03:13:57;;;;;;;11.48;10.40;;;18.90;89.10;;;;;;2040625;29;20551;-69
2021/06/12 03:15:00;;;;;;;11.63;10.52;;;18.90;89.10;;;;;;2032727;29;20024;-69
2021/06/12 03:16:01;;;;;;;10.57;9.68;;;18.90;89.10;;;;;;2041069;29;20114;-69
2021/06/12 03:17:03;;;;;;;11.98;10.80;;;19.00;89.10;;;;;;2040656;29;20028;-69
2021/06/12 03:18:04;;;;;;;11.75;10.65;;;18.90;88.90;;;;;;2032994;29;20024;-69
2021/06/12 03:19:05;;;;;;;11.38;10.38;;;18.90;88.80;;;;;;2040766;29;20094;-69
2021/06/12 03:20:07;;;;;;;11.80;10.70;;;18.90;88.80;;;;;;2040728;29;20053;-69
2021/06/12 03:21:08;;;;;;;12.25;11.05;;;19.00;88.70;;;;;;2040744;29;20039;-68
2021/06/12 03:22:11;;;;;;;11.20;10.20;;;19.00;88.70;;;;;;2048359;29;20463;-69
2021/06/12 03:23:13;;;;;;;11.63;10.40;;;19.00;88.50;;;;;;2040440;29;20040;-69
2021/06/12 03:24:14;;;;;;;11.77;10.68;;;19.00;88.50;;;;;;2040465;29;20039;-69
2021/06/12 03:25:19;;;;;;;11.63;10.43;;;19.00;88.40;;;;;;2047577;28;20215;-69
2021/06/12 03:26:22;;;;;;;12.50;11.20;;;19.00;88.50;;;;;;2033628;29;20032;-70
2021/06/12 03:27:23;;;;;;;12.35;10.82;;;19.00;88.40;;;;;;2032722;29;20059;-70
2021/06/12 03:28:24;;;;;;;12.07;10.98;;;19.00;88.50;;;;;;2032215;29;20032;-70
2021/06/12 03:29:26;;;;;;;12.18;11.07;;;19.00;88.40;;;;;;2032726;29;20028;-69
2021/06/12 03:30:28;;;;;;;11.48;10.35;;;19.00;88.40;;;;;;2040579;29;20559;-69
2021/06/12 03:31:30;;;;;;;11.85;10.73;;;19.00;88.40;;;;;;2040858;29;20023;-69
2021/06/12 03:32:31;;;;;;;11.48;10.38;;;19.10;88.40;;;;;;2041073;29;20020;-70
2021/06/12 03:33:32;;;;;;;11.45;10.35;;;19.10;88.40;;;;;;2040780;29;20016;-70
2021/06/12 03:34:33;;;;;;;11.85;10.57;;;19.10;88.20;;;;;;2039900;29;20020;-70
2021/06/12 03:35:35;;;;;;;11.50;10.45;;;19.10;88.10;;;;;;2041398;29;20035;-71
2021/06/12 03:36:36;;;;;;;12.02;10.82;;;19.10;87.80;;;;;;2041211;29;20019;-70
2021/06/12 03:37:38;;;;;;;11.50;10.40;;;19.10;87.70;;;;;;2040673;29;20038;-70
2021/06/12 03:38:39;;;;;;;12.30;11.10;;;19.20;87.60;;;;;;2032756;29;20834;-70
2021/06/12 03:39:40;;;;;;;11.05;10.05;;;19.20;87.40;;;;;;2033001;29;20034;-69
2021/06/12 03:40:41;;;;;;;11.23;10.18;;;19.20;87.20;;;;;;2040979;29;20129;-70
2021/06/12 03:41:43;;;;;;;12.38;11.20;;;19.20;87.10;;;;;;2041111;29;20024;-70
2021/06/12 03:42:45;;;;;;;11.38;10.38;;;19.20;87.10;;;;;;2040258;29;20047;-70
2021/06/12 03:43:48;;;;;;;11.20;10.20;;;19.20;87.00;;;;;;2040276;29;20055;-69
2021/06/12 03:44:49;;;;;;;11.40;10.30;;;19.30;87.00;;;;;;2031673;29;20028;-69
2021/06/12 03:45:54;;;;;;;11.43;10.23;;;19.30;87.10;;;;;;2032469;29;20032;-69
2021/06/12 03:46:55;;;;;;;11.45;10.35;;;19.30;87.00;;;;;;2032707;29;20036;-70
2021/06/12 03:48:00;;;;;;;11.90;10.73;;;19.40;87.20;;;;;;2024873;29;20043;-69
2021/06/12 03:49:01;;;;;;;11.38;10.27;;;19.40;87.00;;;;;;2033054;29;20455;-69
2021/06/12 03:50:04;;;;;;;11.38;10.27;;;19.50;86.80;;;;;;2040419;29;20031;-69
2021/06/12 03:51:06;;;;;;;11.50;10.40;;;19.60;86.40;;;;;;2040492;29;20671;-70
2021/06/12 03:52:07;;;;;;;11.82;10.63;;;19.70;85.80;;;;;;2040433;29;20434;-69
2021/06/12 03:53:08;;;;;;;12.07;10.98;;;19.70;85.40;;;;;;2040392;29;20099;-70
2021/06/12 03:54:10;;;;;;;11.95;10.70;;;19.80;85.20;;;;;;2040325;29;20024;-69
2021/06/12 03:55:11;;;;;;;11.98;10.77;;;19.90;84.90;;;;;;2039977;29;20475;-70
2021/06/12 03:56:16;;;;;;;11.27;10.10;;;19.90;84.40;;;;;;2040309;29;20704;-70
2021/06/12 03:57:19;;;;;;;12.05;10.95;;;19.90;84.30;;;;;;2032834;29;20551;-69
2021/06/12 03:58:20;;;;;;;11.57;10.45;;;20.00;83.90;;;;;;2032591;29;20032;-69
2021/06/12 03:59:22;;;;;;;12.20;11.07;;;20.00;83.70;;;;;;2040929;29;20034;-69
2021/06/12 04:00:23;;;;;;;13.38;10.75;;;20.00;83.40;;;;;;2040904;29;20100;-69
2021/06/12 04:01:24;;;;;;;12.93;11.60;;;20.10;83.40;;;;;;2032540;29;20463;-69
2021/06/12 04:02:26;;;;;;;11.65;10.55;;;20.10;83.50;;;;;;2032717;29;20049;-69
2021/06/12 04:03:27;;;;;;;10.68;9.68;;;20.10;83.50;;;;;;2032459;29;20020;-69
2021/06/12 04:04:27;;;;;;;11.35;10.18;;;20.10;83.50;;;;;;2031951;29;20042;-70
2021/06/12 04:05:28;;;;;;;11.05;10.00;;;20.10;83.60;;;;;;2040753;29;20047;-70
2021/06/12 04:06:29;;;;;;;11.85;10.75;;;20.20;83.50;;;;;;2041153;29;20030;-70
2021/06/12 04:07:30;;;;;;;11.38;10.27;;;20.30;83.50;;;;;;2040695;29;20038;-69
2021/06/12 04:08:30;;;;;;;11.52;10.43;;;20.40;83.20;;;;;;2032996;29;20028;-70
2021/06/12 04:09:31;;;;;;;11.60;10.50;;;20.50;82.80;;;;;;2040217;29;20046;-70
2021/06/12 04:10:31;;;;;;;11.02;10.02;;;20.50;82.50;;;;;;2047423;29;20027;-70
2021/06/12 04:11:32;;;;;;;11.13;10.13;;;20.50;82.20;;;;;;2045138;29;20544;-70
2021/06/12 04:12:33;;;;;;;11.10;10.10;;;20.50;82.00;;;;;;2044024;29;20019;-69
2021/06/12 04:13:33;;;;;;;11.02;10.02;;;20.50;81.90;;;;;;2047873;29;20020;-70
2021/06/12 04:14:34;;;;;;;11.68;10.57;;;20.50;81.90;;;;;;2044560;29;20086;-69
2021/06/12 04:15:35;;;;;;;11.25;10.25;;;20.50;81.80;;;;;;2041120;29;20091;-69
2021/06/12 04:16:37;;;;;;;11.40;10.30;;;20.40;81.80;;;;;;2041295;29;20420;-70
2021/06/12 04:17:39;;;;;;;11.27;10.20;;;20.40;82.00;;;;;;2041068;29;20024;-70
2021/06/12 04:18:40;;;;;;;11.43;10.32;;;20.40;82.20;;;;;;2046348;29;20035;-70
2021/06/12 04:19:41;;;;;;;10.77;9.77;;;20.40;82.20;;;;;;2042746;29;20039;-70
2021/06/12 04:20:41;;;;;;;10.90;9.90;;;20.40;82.10;;;;;;2040409;29;20078;-70
2021/06/12 04:21:42;;;;;;;11.48;10.30;;;20.60;82.10;;;;;;2038607;29;20594;-70
2021/06/12 04:22:43;;;;;;;11.30;10.20;;;20.70;81.40;;;;;;2040975;29;20058;-71
2021/06/12 04:23:44;;;;;;;10.77;9.73;;;20.90;80.70;;;;;;2040304;29;20059;-71
2021/06/12 04:24:44;;;;;;;10.82;9.82;;;21.10;79.80;;;;;;2031502;29;20036;-70
2021/06/12 04:25:45;;;;;;;10.93;9.82;;;21.40;78.80;;;;;;2032034;29;20028;-71
2021/06/12 04:26:45;;;;;;;10.60;9.70;;;21.60;77.80;;;;;;2040254;29;20080;-71
2021/06/12 04:27:46;;;;;;;10.63;9.70;;;21.90;76.70;;;;;;2040050;29;20032;-70
2021/06/12 04:28:47;;;;;;;10.73;9.68;;;22.10;75.70;;;;;;2039878;29;20020;-70
2021/06/12 04:29:48;;;;;;;10.35;9.45;;;22.40;74.60;;;;;;2039969;29;20028;-70
2021/06/12 04:30:50;;;;;;;10.45;9.45;;;22.60;73.60;;;;;;2039857;29;20123;-70
2021/06/12 04:31:51;;;;;;;10.23;9.23;;;22.80;72.40;;;;;;2040430;29;20024;-70
2021/06/12 04:32:51;;;;;;;11.80;9.52;;;22.90;71.40;;;;;;2040597;29;20039;-70
2021/06/12 04:33:52;;;;;;;9.70;8.80;;;23.00;70.60;;;;;;2040010;29;20142;-70
2021/06/12 04:34:53;;;;;;;10.18;9.18;;;23.20;69.90;;;;;;2039370;29;20067;-70
2021/06/12 04:35:56;;;;;;;9.75;8.73;;;23.30;69.20;;;;;;2040419;29;20116;-70
2021/06/12 04:36:56;;;;;;;9.88;8.98;;;23.40;68.80;;;;;;2040407;29;20110;-71
2021/06/12 04:38:01;;;;;;;9.70;8.75;;;23.50;68.20;;;;;;2039929;29;20411;-72
2021/06/12 04:39:01;;;;;;;9.95;9.05;;;23.50;67.80;;;;;;2040554;29;20055;-70
2021/06/12 04:40:03;;;;;;;10.43;9.50;;;23.40;67.60;;;;;;2040791;29;20508;-70
2021/06/12 04:41:04;;;;;;;9.30;8.50;;;23.30;67.80;;;;;;2039890;29;20050;-71
2021/06/12 04:42:05;;;;;;;9.55;8.55;;;23.20;68.20;;;;;;2040061;29;20112;-70
2021/06/12 04:43:07;;;;;;;9.88;9.00;;;23.20;68.70;;;;;;2040033;29;20035;-75
2021/06/12 04:44:08;;;;;;;9.73;8.88;;;23.10;69.00;;;;;;2031965;29;20076;-70
2021/06/12 04:45:09;;;;;;;9.40;8.60;;;23.10;69.20;;;;;;2023462;29;20036;-70
2021/06/12 04:46:10;;;;;;;9.35;8.52;;;23.00;69.20;;;;;;2032238;29;20024;-71
2021/06/12 04:47:10;;;;;;;9.63;8.70;;;23.00;69.50;;;;;;2039875;29;20035;-70
2021/06/12 04:48:11;;;;;;;10.07;9.18;;;23.00;69.70;;;;;;2034398;29;20035;-70
2021/06/12 04:49:12;;;;;;;9.68;8.77;;;23.20;69.70;;;;;;2040408;29;20039;-71
2021/06/12 04:50:13;;;;;;;10.93;9.48;;;23.30;69.10;;;;;;2032063;29;20064;-70
2021/06/12 04:51:14;;;;;;;9.50;8.50;;;23.40;68.30;;;;;;2024256;29;20836;-70
2021/06/12 04:52:15;;;;;;;9.57;8.68;;;23.40;67.60;;;;;;2031851;29;20036;-70
2021/06/12 04:53:15;;;;;;;9.07;8.30;;;23.50;67.20;;;;;;2032000;29;20075;-70
2021/06/12 04:54:16;;;;;;;9.65;8.65;;;23.40;66.90;;;;;;2032005;29;20079;-71
2021/06/12 04:55:17;;;;;;;9.60;8.60;;;23.30;66.70;;;;;;2031120;29;20095;-71
2021/06/12 04:56:17;;;;;;;10.07;8.95;;;23.20;66.80;;;;;;2039982;29;20075;-71
2021/06/12 04:57:19;;;;;;;10.50;9.38;;;23.00;67.20;;;;;;2039630;29;20075;-71
2021/06/12 04:58:19;;;;;;;10.50;9.50;;;22.90;67.80;;;;;;2040163;29;20027;-70
2021/06/12 04:59:20;;;;;;;10.45;9.45;;;22.70;68.50;;;;;;2040411;29;20460;-71
2021/06/12 05:00:21;;;;;;;10.05;9.13;;;22.60;69.40;;;;;;2040342;29;20019;-71
2021/06/12 05:01:22;;;;;;;10.13;9.13;;;22.40;70.10;;;;;;2039662;29;20032;-71
2021/06/12 05:02:23;;;;;;;10.10;9.20;;;22.30;70.70;;;;;;2039640;29;20027;-71
2021/06/12 05:03:23;;;;;;;10.73;9.73;;;22.20;71.20;;;;;;2040264;29;20028;-71
2021/06/12 05:04:24;;;;;;;9.45;8.45;;;22.10;71.70;;;;;;2040211;29;20023;-71
2021/06/12 05:05:25;;;;;;;9.82;8.90;;;22.10;71.80;;;;;;2038129;29;20080;-70
2021/06/12 05:06:25;;;;;;;10.52;8.82;;;22.00;72.20;;;;;;2039576;29;20481;-70
2021/06/12 05:07:26;;;;;;;10.05;9.05;;;22.00;72.30;;;;;;2035562;29;20078;-71
2021/06/12 05:08:27;;;;;;;10.02;8.77;;;22.00;72.40;;;;;;2039651;29;20028;-71
2021/06/12 05:09:27;;;;;;;13.18;9.95;;;21.90;72.50;;;;;;2040281;29;20047;-70
2021/06/12 05:10:28;;;;;;;10.27;9.30;;;21.90;72.90;;;;;;2039967;29;20872;-70
2021/06/12 05:11:28;;;;;;;9.40;8.60;;;21.90;73.30;;;;;;2039572;29;20032;-71
2021/06/12 05:12:29;;;;;;;9.70;8.80;;;21.90;73.60;;;;;;2038787;29;20724;-70
2021/06/12 05:13:33;;;;;;;9.20;8.40;;;21.90;74.40;;;;;;2039842;29;20127;-71
2021/06/12 05:14:34;;;;;;;9.55;8.65;;;21.80;73.70;;;;;;2039704;29;20713;-70
2021/06/12 05:15:35;;;;;;;11.13;9.68;;;21.80;73.80;;;;;;2039749;29;20035;-70
2021/06/12 05:16:37;;;;;;;11.63;10.43;;;21.80;74.20;;;;;;2039580;29;20027;-69
2021/06/12 05:17:40;;;;;;;10.15;9.18;;;21.70;74.40;;;;;;2040346;29;20019;-70
2021/06/12 05:18:44;;;;;;;10.02;9.13;;;21.70;74.60;;;;;;2039701;29;20075;-70